sensor_id;sensor_type;location;lat;lon;timestamp;P1;durP1;ratioP1;P2;durP2;ratioP2
59938;SDS011;45801;51.810;19.444;2023-03-04T00:00:30;35.20;;;16.40;;
59938;SDS011;45801;51.810;19.444;2023-03-04T00:03:16;33.10;;;16.90;;
59938;SDS011;45801;51.810;19.444;2023-03-04T00:05:43;32.50;;;18.00;;
59938;SDS011;45801;51.810;19.444;2023-03-04T00:08:10;36.60;;;17.60;;
59938;SDS011;45801;51.810;19.444;2023-03-04T00:10:36;34.20;;;16.90;;
59938;SDS011;45801;51.810;19.444;2023-03-04T00:13:03;32.70;;;16.90;;
59938;SDS011;45801;51.810;19.444;2023-03-04T00:15:29;34.40;;;16.30;;
59938;SDS011;45801;51.810;19.444;2023-03-04T00:17:55;29.80;;;15.40;;
59938;SDS011;45801;51.810;19.444;2023-03-04T00:20:22;32.50;;;14.50;;
59938;SDS011;45801;51.810;19.444;2023-03-04T00:22:48;31.10;;;16.00;;
59938;SDS011;45801;51.810;19.444;2023-03-04T00:25:15;32.10;;;18.40;;
59938;SDS011;45801;51.810;19.444;2023-03-04T00:27:41;24.20;;;12.80;;
59938;SDS011;45801;51.810;19.444;2023-03-04T00:30:08;29.70;;;15.60;;
59938;SDS011;45801;51.810;19.444;2023-03-04T00:32:35;29.10;;;14.90;;
59938;SDS011;45801;51.810;19.444;2023-03-04T00:35:01;31.50;;;14.90;;
59938;SDS011;45801;51.810;19.444;2023-03-04T00:37:28;32.20;;;15.70;;
59938;SDS011;45801;51.810;19.444;2023-03-04T00:39:54;32.40;;;16.50;;
59938;SDS011;45801;51.810;19.444;2023-03-04T00:42:21;32.40;;;17.00;;
59938;SDS011;45801;51.810;19.444;2023-03-04T00:44:47;33.90;;;17.40;;
59938;SDS011;45801;51.810;19.444;2023-03-04T00:47:14;28.80;;;14.90;;
59938;SDS011;45801;51.810;19.444;2023-03-04T00:49:41;27.20;;;14.30;;
59938;SDS011;45801;51.810;19.444;2023-03-04T00:52:08;27.50;;;14.20;;
59938;SDS011;45801;51.810;19.444;2023-03-04T00:54:35;26.20;;;13.70;;
59938;SDS011;45801;51.810;19.444;2023-03-04T00:57:02;28.90;;;14.50;;
59938;SDS011;45801;51.810;19.444;2023-03-04T00:59:28;27.90;;;15.10;;
59938;SDS011;45801;51.810;19.444;2023-03-04T01:01:55;23.10;;;12.00;;
59938;SDS011;45801;51.810;19.444;2023-03-04T01:04:21;31.90;;;16.00;;
59938;SDS011;45801;51.810;19.444;2023-03-04T01:06:48;26.70;;;14.30;;
59938;SDS011;45801;51.810;19.444;2023-03-04T01:09:14;31.00;;;15.80;;
59938;SDS011;45801;51.810;19.444;2023-03-04T01:11:41;28.70;;;15.10;;
59938;SDS011;45801;51.810;19.444;2023-03-04T01:14:07;25.60;;;13.30;;
59938;SDS011;45801;51.810;19.444;2023-03-04T01:16:34;30.80;;;15.90;;
59938;SDS011;45801;51.810;19.444;2023-03-04T01:19:00;24.40;;;15.00;;
59938;SDS011;45801;51.810;19.444;2023-03-04T01:21:27;27.60;;;14.50;;
59938;SDS011;45801;51.810;19.444;2023-03-04T01:23:53;27.00;;;16.00;;
59938;SDS011;45801;51.810;19.444;2023-03-04T01:26:20;24.00;;;12.90;;
59938;SDS011;45801;51.810;19.444;2023-03-04T01:28:46;28.60;;;15.50;;
59938;SDS011;45801;51.810;19.444;2023-03-04T01:31:13;25.90;;;13.50;;
59938;SDS011;45801;51.810;19.444;2023-03-04T01:33:40;28.50;;;14.90;;
59938;SDS011;45801;51.810;19.444;2023-03-04T01:36:06;26.80;;;14.60;;
59938;SDS011;45801;51.810;19.444;2023-03-04T01:38:33;27.10;;;15.90;;
59938;SDS011;45801;51.810;19.444;2023-03-04T01:40:59;29.80;;;16.40;;
59938;SDS011;45801;51.810;19.444;2023-03-04T01:43:27;28.90;;;17.30;;
59938;SDS011;45801;51.810;19.444;2023-03-04T01:45:55;27.40;;;15.80;;
59938;SDS011;45801;51.810;19.444;2023-03-04T01:48:31;26.40;;;14.90;;
59938;SDS011;45801;51.810;19.444;2023-03-04T01:51:03;29.10;;;16.40;;
59938;SDS011;45801;51.810;19.444;2023-03-04T01:53:37;25.40;;;14.00;;
59938;SDS011;45801;51.810;19.444;2023-03-04T01:56:37;25.70;;;14.40;;
59938;SDS011;45801;51.810;19.444;2023-03-04T01:59:18;27.10;;;15.30;;
59938;SDS011;45801;51.810;19.444;2023-03-04T02:01:53;25.90;;;15.50;;
59938;SDS011;45801;51.810;19.444;2023-03-04T02:04:23;24.50;;;14.60;;
59938;SDS011;45801;51.810;19.444;2023-03-04T02:06:51;27.20;;;15.20;;
59938;SDS011;45801;51.810;19.444;2023-03-04T02:09:19;27.60;;;14.10;;
59938;SDS011;45801;51.810;19.444;2023-03-04T02:11:46;28.30;;;16.60;;
59938;SDS011;45801;51.810;19.444;2023-03-04T02:14:14;23.70;;;12.80;;
59938;SDS011;45801;51.810;19.444;2023-03-04T02:16:42;25.10;;;13.40;;
59938;SDS011;45801;51.810;19.444;2023-03-04T02:19:18;29.40;;;15.30;;
59938;SDS011;45801;51.810;19.444;2023-03-04T02:22:05;28.70;;;15.00;;
59938;SDS011;45801;51.810;19.444;2023-03-04T02:27:02;23.40;;;14.20;;
59938;SDS011;45801;51.810;19.444;2023-03-04T02:29:29;27.60;;;14.70;;
59938;SDS011;45801;51.810;19.444;2023-03-04T02:31:55;24.80;;;14.80;;
59938;SDS011;45801;51.810;19.444;2023-03-04T02:34:29;23.40;;;14.10;;
59938;SDS011;45801;51.810;19.444;2023-03-04T02:36:59;23.50;;;14.10;;
59938;SDS011;45801;51.810;19.444;2023-03-04T02:39:30;26.40;;;14.90;;
59938;SDS011;45801;51.810;19.444;2023-03-04T02:41:59;22.10;;;12.30;;
59938;SDS011;45801;51.810;19.444;2023-03-04T02:44:28;23.60;;;12.70;;
59938;SDS011;45801;51.810;19.444;2023-03-04T02:46:56;22.70;;;13.30;;
59938;SDS011;45801;51.810;19.444;2023-03-04T02:49:25;21.70;;;12.10;;
59938;SDS011;45801;51.810;19.444;2023-03-04T02:51:58;24.60;;;13.10;;
59938;SDS011;45801;51.810;19.444;2023-03-04T02:54:30;22.80;;;12.20;;
59938;SDS011;45801;51.810;19.444;2023-03-04T02:56:59;19.90;;;12.30;;
59938;SDS011;45801;51.810;19.444;2023-03-04T02:59:27;21.40;;;12.70;;
59938;SDS011;45801;51.810;19.444;2023-03-04T03:01:54;19.40;;;10.30;;
59938;SDS011;45801;51.810;19.444;2023-03-04T03:04:21;20.90;;;11.40;;
59938;SDS011;45801;51.810;19.444;2023-03-04T03:06:49;21.00;;;11.40;;
59938;SDS011;45801;51.810;19.444;2023-03-04T03:09:16;21.40;;;11.10;;
59938;SDS011;45801;51.810;19.444;2023-03-04T03:11:42;21.90;;;12.50;;
59938;SDS011;45801;51.810;19.444;2023-03-04T03:14:09;23.30;;;11.50;;
59938;SDS011;45801;51.810;19.444;2023-03-04T03:16:36;19.90;;;10.60;;
59938;SDS011;45801;51.810;19.444;2023-03-04T03:19:02;19.70;;;10.70;;
59938;SDS011;45801;51.810;19.444;2023-03-04T03:21:29;23.90;;;12.20;;
59938;SDS011;45801;51.810;19.444;2023-03-04T03:23:55;21.10;;;12.00;;
59938;SDS011;45801;51.810;19.444;2023-03-04T03:26:22;19.10;;;11.00;;
59938;SDS011;45801;51.810;19.444;2023-03-04T03:28:48;21.00;;;10.90;;
59938;SDS011;45801;51.810;19.444;2023-03-04T03:31:15;23.50;;;12.40;;
59938;SDS011;45801;51.810;19.444;2023-03-04T03:33:41;21.00;;;12.10;;
59938;SDS011;45801;51.810;19.444;2023-03-04T03:36:08;19.50;;;10.40;;
59938;SDS011;45801;51.810;19.444;2023-03-04T03:38:34;24.00;;;13.00;;
59938;SDS011;45801;51.810;19.444;2023-03-04T03:41:01;22.90;;;13.40;;
59938;SDS011;45801;51.810;19.444;2023-03-04T03:43:27;21.70;;;12.30;;
59938;SDS011;45801;51.810;19.444;2023-03-04T03:45:54;22.30;;;11.80;;
59938;SDS011;45801;51.810;19.444;2023-03-04T03:48:20;20.00;;;11.40;;
59938;SDS011;45801;51.810;19.444;2023-03-04T03:50:47;24.00;;;12.90;;
59938;SDS011;45801;51.810;19.444;2023-03-04T03:53:13;22.60;;;12.00;;
59938;SDS011;45801;51.810;19.444;2023-03-04T03:55:40;25.20;;;14.60;;
59938;SDS011;45801;51.810;19.444;2023-03-04T03:58:06;21.80;;;11.60;;
59938;SDS011;45801;51.810;19.444;2023-03-04T04:00:33;24.70;;;12.10;;
59938;SDS011;45801;51.810;19.444;2023-03-04T04:02:59;23.30;;;11.80;;
59938;SDS011;45801;51.810;19.444;2023-03-04T04:05:26;20.90;;;10.80;;
59938;SDS011;45801;51.810;19.444;2023-03-04T04:07:53;21.50;;;13.40;;
59938;SDS011;45801;51.810;19.444;2023-03-04T04:10:20;20.60;;;13.20;;
59938;SDS011;45801;51.810;19.444;2023-03-04T04:12:46;21.90;;;12.80;;
59938;SDS011;45801;51.810;19.444;2023-03-04T04:15:13;19.90;;;12.50;;
59938;SDS011;45801;51.810;19.444;2023-03-04T04:17:39;25.20;;;15.30;;
59938;SDS011;45801;51.810;19.444;2023-03-04T04:20:06;25.00;;;14.10;;
59938;SDS011;45801;51.810;19.444;2023-03-04T04:22:34;21.70;;;12.60;;
59938;SDS011;45801;51.810;19.444;2023-03-04T04:25:00;21.50;;;13.00;;
59938;SDS011;45801;51.810;19.444;2023-03-04T04:27:27;22.80;;;12.60;;
59938;SDS011;45801;51.810;19.444;2023-03-04T04:29:54;20.10;;;10.90;;
59938;SDS011;45801;51.810;19.444;2023-03-04T04:32:20;21.70;;;11.80;;
59938;SDS011;45801;51.810;19.444;2023-03-04T04:34:47;24.70;;;13.00;;
59938;SDS011;45801;51.810;19.444;2023-03-04T04:37:13;23.70;;;13.40;;
59938;SDS011;45801;51.810;19.444;2023-03-04T04:39:39;22.40;;;12.80;;
59938;SDS011;45801;51.810;19.444;2023-03-04T04:42:07;23.00;;;12.20;;
59938;SDS011;45801;51.810;19.444;2023-03-04T04:44:35;22.60;;;11.80;;
59938;SDS011;45801;51.810;19.444;2023-03-04T04:47:04;21.00;;;12.20;;
59938;SDS011;45801;51.810;19.444;2023-03-04T04:49:32;20.30;;;12.50;;
59938;SDS011;45801;51.810;19.444;2023-03-04T04:51:58;24.90;;;12.90;;
59938;SDS011;45801;51.810;19.444;2023-03-04T04:54:25;20.10;;;11.30;;
59938;SDS011;45801;51.810;19.444;2023-03-04T04:56:51;21.90;;;12.80;;
59938;SDS011;45801;51.810;19.444;2023-03-04T04:59:18;17.30;;;10.70;;
59938;SDS011;45801;51.810;19.444;2023-03-04T05:01:44;20.00;;;11.80;;
59938;SDS011;45801;51.810;19.444;2023-03-04T05:04:11;22.20;;;12.70;;
59938;SDS011;45801;51.810;19.444;2023-03-04T05:06:37;21.30;;;10.80;;
59938;SDS011;45801;51.810;19.444;2023-03-04T05:09:05;23.10;;;11.90;;
59938;SDS011;45801;51.810;19.444;2023-03-04T05:11:32;20.70;;;11.60;;
59938;SDS011;45801;51.810;19.444;2023-03-04T05:13:59;19.40;;;11.70;;
59938;SDS011;45801;51.810;19.444;2023-03-04T05:16:26;23.70;;;13.20;;
59938;SDS011;45801;51.810;19.444;2023-03-04T05:18:52;20.80;;;11.60;;
59938;SDS011;45801;51.810;19.444;2023-03-04T05:21:19;19.80;;;11.10;;
59938;SDS011;45801;51.810;19.444;2023-03-04T05:23:45;19.70;;;11.40;;
59938;SDS011;45801;51.810;19.444;2023-03-04T05:26:13;17.90;;;10.30;;
59938;SDS011;45801;51.810;19.444;2023-03-04T05:28:42;18.40;;;12.20;;
59938;SDS011;45801;51.810;19.444;2023-03-04T05:31:09;18.90;;;11.10;;
59938;SDS011;45801;51.810;19.444;2023-03-04T05:33:37;19.60;;;10.80;;
59938;SDS011;45801;51.810;19.444;2023-03-04T05:36:03;25.00;;;12.80;;
59938;SDS011;45801;51.810;19.444;2023-03-04T05:38:31;20.50;;;10.70;;
59938;SDS011;45801;51.810;19.444;2023-03-04T05:41:00;18.80;;;10.70;;
59938;SDS011;45801;51.810;19.444;2023-03-04T05:43:32;19.40;;;10.00;;
59938;SDS011;45801;51.810;19.444;2023-03-04T05:46:01;22.60;;;13.00;;
59938;SDS011;45801;51.810;19.444;2023-03-04T05:48:29;18.40;;;11.00;;
59938;SDS011;45801;51.810;19.444;2023-03-04T05:50:56;20.40;;;11.50;;
59938;SDS011;45801;51.810;19.444;2023-03-04T05:53:24;17.90;;;10.20;;
59938;SDS011;45801;51.810;19.444;2023-03-04T05:55:52;21.30;;;11.80;;
59938;SDS011;45801;51.810;19.444;2023-03-04T05:58:18;19.80;;;11.10;;
59938;SDS011;45801;51.810;19.444;2023-03-04T06:00:46;20.10;;;12.60;;
59938;SDS011;45801;51.810;19.444;2023-03-04T06:03:13;24.50;;;14.10;;
59938;SDS011;45801;51.810;19.444;2023-03-04T06:05:45;21.90;;;13.80;;
59938;SDS011;45801;51.810;19.444;2023-03-04T06:08:12;24.50;;;13.90;;
59938;SDS011;45801;51.810;19.444;2023-03-04T06:10:39;19.60;;;11.60;;
59938;SDS011;45801;51.810;19.444;2023-03-04T06:13:07;22.20;;;11.40;;
59938;SDS011;45801;51.810;19.444;2023-03-04T06:15:35;20.30;;;12.00;;
59938;SDS011;45801;51.810;19.444;2023-03-04T06:18:02;20.30;;;11.50;;
59938;SDS011;45801;51.810;19.444;2023-03-04T06:20:29;20.80;;;11.10;;
59938;SDS011;45801;51.810;19.444;2023-03-04T06:22:55;18.40;;;10.90;;
59938;SDS011;45801;51.810;19.444;2023-03-04T06:25:22;19.60;;;10.80;;
59938;SDS011;45801;51.810;19.444;2023-03-04T06:27:49;21.80;;;12.60;;
59938;SDS011;45801;51.810;19.444;2023-03-04T06:30:15;18.80;;;11.00;;
59938;SDS011;45801;51.810;19.444;2023-03-04T06:32:42;22.70;;;13.20;;
59938;SDS011;45801;51.810;19.444;2023-03-04T06:35:13;21.20;;;12.00;;
59938;SDS011;45801;51.810;19.444;2023-03-04T06:37:40;22.90;;;12.80;;
59938;SDS011;45801;51.810;19.444;2023-03-04T06:40:07;18.70;;;10.70;;
59938;SDS011;45801;51.810;19.444;2023-03-04T06:42:35;20.50;;;12.60;;
59938;SDS011;45801;51.810;19.444;2023-03-04T06:45:02;21.40;;;14.70;;
59938;SDS011;45801;51.810;19.444;2023-03-04T06:47:29;25.10;;;14.20;;
59938;SDS011;45801;51.810;19.444;2023-03-04T06:49:55;24.20;;;13.40;;
59938;SDS011;45801;51.810;19.444;2023-03-04T06:52:22;26.60;;;14.70;;
59938;SDS011;45801;51.810;19.444;2023-03-04T06:54:49;22.40;;;13.10;;
59938;SDS011;45801;51.810;19.444;2023-03-04T06:57:17;23.40;;;14.00;;
59938;SDS011;45801;51.810;19.444;2023-03-04T06:59:43;23.10;;;13.20;;
59938;SDS011;45801;51.810;19.444;2023-03-04T07:02:10;19.80;;;12.50;;
59938;SDS011;45801;51.810;19.444;2023-03-04T07:04:39;19.60;;;10.00;;
59938;SDS011;45801;51.810;19.444;2023-03-04T07:07:06;22.60;;;14.10;;
59938;SDS011;45801;51.810;19.444;2023-03-04T07:09:34;23.80;;;13.80;;
59938;SDS011;45801;51.810;19.444;2023-03-04T07:12:07;26.00;;;14.30;;
59938;SDS011;45801;51.810;19.444;2023-03-04T07:14:34;24.60;;;12.30;;
59938;SDS011;45801;51.810;19.444;2023-03-04T07:17:00;23.80;;;14.30;;
59938;SDS011;45801;51.810;19.444;2023-03-04T07:19:27;24.70;;;14.90;;
59938;SDS011;45801;51.810;19.444;2023-03-04T07:21:53;22.30;;;12.40;;
59938;SDS011;45801;51.810;19.444;2023-03-04T07:24:20;22.30;;;12.70;;
59938;SDS011;45801;51.810;19.444;2023-03-04T07:26:46;22.40;;;12.70;;
59938;SDS011;45801;51.810;19.444;2023-03-04T07:29:13;21.40;;;13.30;;
59938;SDS011;45801;51.810;19.444;2023-03-04T07:31:40;24.30;;;13.30;;
59938;SDS011;45801;51.810;19.444;2023-03-04T07:34:08;22.80;;;12.10;;
59938;SDS011;45801;51.810;19.444;2023-03-04T07:36:37;25.90;;;16.20;;
59938;SDS011;45801;51.810;19.444;2023-03-04T07:39:04;21.70;;;13.70;;
59938;SDS011;45801;51.810;19.444;2023-03-04T07:41:32;26.50;;;13.70;;
59938;SDS011;45801;51.810;19.444;2023-03-04T07:44:01;39.20;;;17.10;;
59938;SDS011;45801;51.810;19.444;2023-03-04T07:46:29;24.50;;;13.70;;
59938;SDS011;45801;51.810;19.444;2023-03-04T07:48:55;22.10;;;11.80;;
59938;SDS011;45801;51.810;19.444;2023-03-04T07:51:23;25.20;;;14.10;;
59938;SDS011;45801;51.810;19.444;2023-03-04T07:53:52;21.80;;;11.90;;
59938;SDS011;45801;51.810;19.444;2023-03-04T07:56:22;21.90;;;11.70;;
59938;SDS011;45801;51.810;19.444;2023-03-04T07:58:51;22.20;;;12.60;;
59938;SDS011;45801;51.810;19.444;2023-03-04T08:01:20;20.10;;;11.00;;
59938;SDS011;45801;51.810;19.444;2023-03-04T08:03:51;22.10;;;14.00;;
59938;SDS011;45801;51.810;19.444;2023-03-04T08:06:19;23.20;;;13.20;;
59938;SDS011;45801;51.810;19.444;2023-03-04T08:08:47;23.60;;;12.60;;
59938;SDS011;45801;51.810;19.444;2023-03-04T08:11:16;20.60;;;11.80;;
59938;SDS011;45801;51.810;19.444;2023-03-04T08:13:44;21.40;;;12.70;;
59938;SDS011;45801;51.810;19.444;2023-03-04T08:16:12;21.60;;;12.90;;
59938;SDS011;45801;51.810;19.444;2023-03-04T08:18:44;26.00;;;13.80;;
59938;SDS011;45801;51.810;19.444;2023-03-04T08:21:14;23.70;;;11.40;;
59938;SDS011;45801;51.810;19.444;2023-03-04T08:23:41;22.90;;;12.50;;
59938;SDS011;45801;51.810;19.444;2023-03-04T08:26:12;20.50;;;13.20;;
59938;SDS011;45801;51.810;19.444;2023-03-04T08:28:41;21.20;;;12.10;;
59938;SDS011;45801;51.810;19.444;2023-03-04T08:31:08;20.30;;;13.10;;
59938;SDS011;45801;51.810;19.444;2023-03-04T08:33:36;17.40;;;9.60;;
59938;SDS011;45801;51.810;19.444;2023-03-04T08:36:02;19.70;;;11.40;;
59938;SDS011;45801;51.810;19.444;2023-03-04T08:38:29;19.00;;;10.20;;
59938;SDS011;45801;51.810;19.444;2023-03-04T08:40:57;19.50;;;12.40;;
59938;SDS011;45801;51.810;19.444;2023-03-04T08:43:24;20.40;;;10.10;;
59938;SDS011;45801;51.810;19.444;2023-03-04T08:45:52;20.60;;;10.30;;
59938;SDS011;45801;51.810;19.444;2023-03-04T08:48:19;23.90;;;11.60;;
59938;SDS011;45801;51.810;19.444;2023-03-04T08:50:47;19.50;;;10.20;;
59938;SDS011;45801;51.810;19.444;2023-03-04T08:53:15;22.60;;;12.00;;
59938;SDS011;45801;51.810;19.444;2023-03-04T08:55:42;20.30;;;11.30;;
59938;SDS011;45801;51.810;19.444;2023-03-04T08:58:09;21.20;;;10.50;;
59938;SDS011;45801;51.810;19.444;2023-03-04T09:00:36;18.90;;;10.80;;
59938;SDS011;45801;51.810;19.444;2023-03-04T09:03:09;22.70;;;11.90;;
59938;SDS011;45801;51.810;19.444;2023-03-04T09:05:37;20.10;;;12.60;;
59938;SDS011;45801;51.810;19.444;2023-03-04T09:08:04;18.30;;;9.60;;
59938;SDS011;45801;51.810;19.444;2023-03-04T09:10:31;20.90;;;11.80;;
59938;SDS011;45801;51.810;19.444;2023-03-04T09:12:57;21.60;;;12.10;;
59938;SDS011;45801;51.810;19.444;2023-03-04T09:15:24;19.50;;;10.30;;
59938;SDS011;45801;51.810;19.444;2023-03-04T09:17:50;21.90;;;11.80;;
59938;SDS011;45801;51.810;19.444;2023-03-04T09:20:17;20.30;;;11.50;;
59938;SDS011;45801;51.810;19.444;2023-03-04T09:22:43;22.00;;;11.60;;
59938;SDS011;45801;51.810;19.444;2023-03-04T09:25:10;19.90;;;11.10;;
59938;SDS011;45801;51.810;19.444;2023-03-04T09:27:40;21.80;;;10.50;;
59938;SDS011;45801;51.810;19.444;2023-03-04T09:30:08;18.30;;;10.20;;
59938;SDS011;45801;51.810;19.444;2023-03-04T09:32:35;23.20;;;11.80;;
59938;SDS011;45801;51.810;19.444;2023-03-04T09:35:02;21.80;;;10.70;;
59938;SDS011;45801;51.810;19.444;2023-03-04T09:37:29;19.40;;;9.70;;
59938;SDS011;45801;51.810;19.444;2023-03-04T09:39:55;18.60;;;10.20;;
59938;SDS011;45801;51.810;19.444;2023-03-04T09:42:26;18.30;;;10.50;;
59938;SDS011;45801;51.810;19.444;2023-03-04T09:45:02;17.60;;;8.70;;
59938;SDS011;45801;51.810;19.444;2023-03-04T09:47:32;15.20;;;8.70;;
59938;SDS011;45801;51.810;19.444;2023-03-04T09:50:03;19.00;;;10.20;;
59938;SDS011;45801;51.810;19.444;2023-03-04T09:58:15;18.10;;;10.20;;
59938;SDS011;45801;51.810;19.444;2023-03-04T10:01:03;18.40;;;9.50;;
59938;SDS011;45801;51.810;19.444;2023-03-04T10:03:42;19.50;;;11.10;;
59938;SDS011;45801;51.810;19.444;2023-03-04T10:06:17;24.60;;;12.50;;
59938;SDS011;45801;51.810;19.444;2023-03-04T10:08:51;19.90;;;9.50;;
59938;SDS011;45801;51.810;19.444;2023-03-04T10:11:22;23.40;;;12.20;;
59938;SDS011;45801;51.810;19.444;2023-03-04T10:14:03;21.10;;;13.30;;
59938;SDS011;45801;51.810;19.444;2023-03-04T10:22:14;21.40;;;10.80;;
59938;SDS011;45801;51.810;19.444;2023-03-04T10:24:47;19.30;;;11.20;;
59938;SDS011;45801;51.810;19.444;2023-03-04T10:27:14;20.70;;;10.90;;
59938;SDS011;45801;51.810;19.444;2023-03-04T10:29:44;19.10;;;11.70;;
59938;SDS011;45801;51.810;19.444;2023-03-04T10:32:12;20.20;;;10.10;;
59938;SDS011;45801;51.810;19.444;2023-03-04T10:34:42;15.70;;;9.10;;
59938;SDS011;45801;51.810;19.444;2023-03-04T10:37:09;26.10;;;12.40;;
59938;SDS011;45801;51.810;19.444;2023-03-04T10:39:46;23.20;;;13.80;;
59938;SDS011;45801;51.810;19.444;2023-03-04T10:44:58;21.60;;;11.90;;
59938;SDS011;45801;51.810;19.444;2023-03-04T10:47:27;18.60;;;9.30;;
59938;SDS011;45801;51.810;19.444;2023-03-04T10:49:56;19.30;;;11.00;;
59938;SDS011;45801;51.810;19.444;2023-03-04T10:52:28;23.50;;;13.00;;
59938;SDS011;45801;51.810;19.444;2023-03-04T10:55:02;20.10;;;13.00;;
59938;SDS011;45801;51.810;19.444;2023-03-04T10:57:40;21.60;;;11.40;;
59938;SDS011;45801;51.810;19.444;2023-03-04T11:00:22;18.40;;;11.00;;
59938;SDS011;45801;51.810;19.444;2023-03-04T11:03:16;16.70;;;10.60;;
59938;SDS011;45801;51.810;19.444;2023-03-04T11:05:49;19.00;;;11.30;;
59938;SDS011;45801;51.810;19.444;2023-03-04T11:08:22;21.30;;;11.90;;
59938;SDS011;45801;51.810;19.444;2023-03-04T11:10:48;23.90;;;12.80;;
59938;SDS011;45801;51.810;19.444;2023-03-04T11:13:18;17.30;;;9.50;;
59938;SDS011;45801;51.810;19.444;2023-03-04T11:15:51;27.50;;;15.30;;
59938;SDS011;45801;51.810;19.444;2023-03-04T11:18:19;20.10;;;12.60;;
59938;SDS011;45801;51.810;19.444;2023-03-04T11:21:05;22.30;;;12.50;;
59938;SDS011;45801;51.810;19.444;2023-03-04T11:23:38;23.40;;;13.90;;
59938;SDS011;45801;51.810;19.444;2023-03-04T11:26:13;24.50;;;14.50;;
59938;SDS011;45801;51.810;19.444;2023-03-04T11:28:46;25.60;;;14.80;;
59938;SDS011;45801;51.810;19.444;2023-03-04T11:31:26;22.30;;;14.60;;
59938;SDS011;45801;51.810;19.444;2023-03-04T11:34:00;25.20;;;15.50;;
59938;SDS011;45801;51.810;19.444;2023-03-04T11:36:39;25.60;;;15.50;;
59938;SDS011;45801;51.810;19.444;2023-03-04T11:39:14;26.20;;;15.40;;
59938;SDS011;45801;51.810;19.444;2023-03-04T11:44:57;23.00;;;15.20;;
59938;SDS011;45801;51.810;19.444;2023-03-04T11:47:27;23.60;;;14.10;;
59938;SDS011;45801;51.810;19.444;2023-03-04T11:55:35;23.00;;;13.00;;
59938;SDS011;45801;51.810;19.444;2023-03-04T11:58:14;24.30;;;14.90;;
59938;SDS011;45801;51.810;19.444;2023-03-04T12:01:06;20.50;;;13.10;;
59938;SDS011;45801;51.810;19.444;2023-03-04T12:06:44;18.80;;;11.60;;
59938;SDS011;45801;51.810;19.444;2023-03-04T12:09:31;19.40;;;11.30;;
59938;SDS011;45801;51.810;19.444;2023-03-04T12:18:33;20.70;;;12.40;;
59938;SDS011;45801;51.810;19.444;2023-03-04T12:23:42;16.60;;;10.80;;
59938;SDS011;45801;51.810;19.444;2023-03-04T12:29:27;19.60;;;11.70;;
59938;SDS011;45801;51.810;19.444;2023-03-04T12:35:04;18.50;;;9.80;;
59938;SDS011;45801;51.810;19.444;2023-03-04T12:37:56;16.50;;;9.60;;
59938;SDS011;45801;51.810;19.444;2023-03-04T12:40:46;20.90;;;10.20;;
59938;SDS011;45801;51.810;19.444;2023-03-04T12:43:38;14.80;;;8.30;;
59938;SDS011;45801;51.810;19.444;2023-03-04T12:46:20;17.30;;;9.70;;
59938;SDS011;45801;51.810;19.444;2023-03-04T12:49:19;16.60;;;9.30;;
59938;SDS011;45801;51.810;19.444;2023-03-04T12:52:00;16.20;;;9.10;;
59938;SDS011;45801;51.810;19.444;2023-03-04T12:54:45;15.00;;;8.30;;
59938;SDS011;45801;51.810;19.444;2023-03-04T12:57:16;14.90;;;7.10;;
59938;SDS011;45801;51.810;19.444;2023-03-04T13:02:55;14.20;;;6.90;;
59938;SDS011;45801;51.810;19.444;2023-03-04T13:05:40;13.40;;;6.90;;
59938;SDS011;45801;51.810;19.444;2023-03-04T13:08:33;14.50;;;7.50;;
59938;SDS011;45801;51.810;19.444;2023-03-04T13:16:52;11.10;;;6.40;;
59938;SDS011;45801;51.810;19.444;2023-03-04T13:22:27;11.90;;;6.00;;
59938;SDS011;45801;51.810;19.444;2023-03-04T13:24:58;14.30;;;5.90;;
59938;SDS011;45801;51.810;19.444;2023-03-04T13:27:48;12.80;;;6.30;;
59938;SDS011;45801;51.810;19.444;2023-03-04T13:35:47;10.90;;;6.50;;
59938;SDS011;45801;51.810;19.444;2023-03-04T13:43:43;14.20;;;6.40;;
59938;SDS011;45801;51.810;19.444;2023-03-04T13:56:28;11.10;;;4.90;;
59938;SDS011;45801;51.810;19.444;2023-03-04T13:59:02;10.50;;;4.80;;
59938;SDS011;45801;51.810;19.444;2023-03-04T14:01:33;10.00;;;4.30;;
59938;SDS011;45801;51.810;19.444;2023-03-04T14:04:10;10.10;;;4.70;;
59938;SDS011;45801;51.810;19.444;2023-03-04T14:06:44;9.40;;;4.40;;
59938;SDS011;45801;51.810;19.444;2023-03-04T14:09:18;9.40;;;4.10;;
59938;SDS011;45801;51.810;19.444;2023-03-04T14:11:47;8.10;;;3.90;;
59938;SDS011;45801;51.810;19.444;2023-03-04T14:14:17;6.90;;;2.50;;
59938;SDS011;45801;51.810;19.444;2023-03-04T14:16:49;6.70;;;2.40;;
59938;SDS011;45801;51.810;19.444;2023-03-04T14:19:28;8.10;;;2.70;;
59938;SDS011;45801;51.810;19.444;2023-03-04T14:22:24;6.20;;;2.20;;
59938;SDS011;45801;51.810;19.444;2023-03-04T14:27:23;8.40;;;3.30;;
59938;SDS011;45801;51.810;19.444;2023-03-04T14:29:54;10.90;;;2.70;;
59938;SDS011;45801;51.810;19.444;2023-03-04T14:32:23;9.10;;;3.00;;
59938;SDS011;45801;51.810;19.444;2023-03-04T14:34:52;8.80;;;2.80;;
59938;SDS011;45801;51.810;19.444;2023-03-04T14:37:26;10.20;;;3.30;;
59938;SDS011;45801;51.810;19.444;2023-03-04T14:40:06;9.50;;;2.90;;
59938;SDS011;45801;51.810;19.444;2023-03-04T14:42:40;9.70;;;3.00;;
59938;SDS011;45801;51.810;19.444;2023-03-04T14:45:11;9.50;;;5.60;;
59938;SDS011;45801;51.810;19.444;2023-03-04T14:47:42;12.10;;;4.90;;
59938;SDS011;45801;51.810;19.444;2023-03-04T14:50:15;12.50;;;4.20;;
59938;SDS011;45801;51.810;19.444;2023-03-04T14:52:44;10.60;;;4.20;;
59938;SDS011;45801;51.810;19.444;2023-03-04T14:57:43;9.60;;;4.00;;
59938;SDS011;45801;51.810;19.444;2023-03-04T15:00:13;7.70;;;3.60;;
59938;SDS011;45801;51.810;19.444;2023-03-04T15:02:47;9.60;;;3.20;;
59938;SDS011;45801;51.810;19.444;2023-03-04T15:05:17;8.30;;;2.80;;
59938;SDS011;45801;51.810;19.444;2023-03-04T15:07:49;8.40;;;3.50;;
59938;SDS011;45801;51.810;19.444;2023-03-04T15:10:22;10.40;;;4.00;;
59938;SDS011;45801;51.810;19.444;2023-03-04T15:12:53;9.70;;;4.10;;
59938;SDS011;45801;51.810;19.444;2023-03-04T15:18:01;7.60;;;3.20;;
59938;SDS011;45801;51.810;19.444;2023-03-04T15:20:30;10.50;;;4.40;;
59938;SDS011;45801;51.810;19.444;2023-03-04T15:22:58;11.20;;;4.10;;
59938;SDS011;45801;51.810;19.444;2023-03-04T15:25:27;10.00;;;4.00;;
59938;SDS011;45801;51.810;19.444;2023-03-04T15:27:55;8.40;;;3.70;;
59938;SDS011;45801;51.810;19.444;2023-03-04T15:30:27;11.00;;;5.10;;
59938;SDS011;45801;51.810;19.444;2023-03-04T15:32:56;10.70;;;5.70;;
59938;SDS011;45801;51.810;19.444;2023-03-04T15:35:26;10.00;;;4.30;;
59938;SDS011;45801;51.810;19.444;2023-03-04T15:38:10;10.50;;;4.20;;
59938;SDS011;45801;51.810;19.444;2023-03-04T15:40:38;15.10;;;5.50;;
59938;SDS011;45801;51.810;19.444;2023-03-04T15:43:10;14.00;;;5.30;;
59938;SDS011;45801;51.810;19.444;2023-03-04T15:45:40;11.80;;;5.60;;
59938;SDS011;45801;51.810;19.444;2023-03-04T15:48:08;12.70;;;7.30;;
59938;SDS011;45801;51.810;19.444;2023-03-04T15:50:46;12.70;;;6.00;;